Time;durP1;ratioP1;P1;durP2;ratioP2;P2;SDS_P1;SDS_P2;PMS_P1;PMS_P2;Temp;Humidity;BMP_temperature;BMP_pressure;BME280_temperature;BME280_humidity;BME280_pressure;Samples;Min_cycle;Max_cycle;Signal;HPM_P1;HPM_P2
2023/09/02 00:01:31;;;;;;;38.33;27.95;;;16.90;99.90;;;;;;4978761;28;20036;-74
2023/09/02 00:03:57;;;;;;;42.67;30.13;;;16.90;99.90;;;;;;4996009;28;20033;-74
2023/09/02 00:06:24;;;;;;;39.25;28.98;;;16.90;99.90;;;;;;4995160;28;20046;-74
2023/09/02 00:08:50;;;;;;;43.53;30.42;;;16.90;99.90;;;;;;5010277;28;20038;-75
2023/09/02 00:11:17;;;;;;;43.92;30.85;;;16.90;99.90;;;;;;5027015;28;20040;-74
2023/09/02 00:13:43;;;;;;;43.25;29.92;;;16.90;99.90;;;;;;4995173;28;20492;-74
2023/09/02 00:16:09;;;;;;;40.35;28.98;;;17.00;99.90;;;;;;4994638;28;20040;-74
2023/09/02 00:18:36;;;;;;;42.25;30.95;;;17.00;99.90;;;;;;4994604;28;20060;-74
2023/09/02 00:21:02;;;;;;;44.30;32.38;;;17.00;99.90;;;;;;4977422;28;20508;-74
2023/09/02 00:23:29;;;;;;;49.05;34.53;;;16.90;99.90;;;;;;5010364;28;20036;-75
2023/09/02 00:25:56;;;;;;;52.28;36.08;;;16.80;99.90;;;;;;4994738;28;20372;-74
2023/09/02 00:28:22;;;;;;;42.78;31.15;;;16.70;99.90;;;;;;4978023;28;20053;-75
2023/09/02 00:30:49;;;;;;;37.83;28.60;;;16.60;99.90;;;;;;4994839;28;20034;-75
2023/09/02 00:33:15;;;;;;;35.72;27.67;;;16.60;99.90;;;;;;5011129;28;20034;-75
2023/09/02 00:35:41;;;;;;;32.00;24.85;;;16.50;99.90;;;;;;5025804;28;20460;-74
2023/09/02 00:38:08;;;;;;;39.22;29.42;;;16.50;99.90;;;;;;5024651;28;20507;-74
2023/09/02 00:40:36;;;;;;;43.92;31.13;;;16.50;99.90;;;;;;4992617;28;20042;-74
2023/09/02 00:43:04;;;;;;;37.30;27.40;;;16.40;99.90;;;;;;4993432;28;20276;-75
2023/09/02 00:45:31;;;;;;;32.92;25.02;;;16.40;99.90;;;;;;4992837;28;20046;-74
2023/09/02 00:47:59;;;;;;;35.63;26.75;;;16.30;99.90;;;;;;5010195;28;20230;-74
2023/09/02 00:50:26;;;;;;;39.25;27.33;;;16.20;99.90;;;;;;5008960;28;20034;-74
2023/09/02 00:52:53;;;;;;;30.77;23.95;;;16.20;99.90;;;;;;5009855;28;20361;-74
2023/09/02 00:55:21;;;;;;;30.10;22.10;;;16.20;99.90;;;;;;4993771;28;20037;-74
2023/09/02 00:57:47;;;;;;;32.38;24.10;;;16.20;99.90;;;;;;4992321;28;20037;-74
2023/09/02 01:00:14;;;;;;;28.77;21.65;;;16.10;99.90;;;;;;4992359;28;20425;-74
2023/09/02 01:02:42;;;;;;;27.15;20.85;;;16.10;99.90;;;;;;4992914;28;20045;-74
2023/09/02 01:05:09;;;;;;;28.55;21.38;;;16.10;99.90;;;;;;5009675;28;20037;-74
2023/09/02 01:07:36;;;;;;;26.58;21.05;;;16.10;99.90;;;;;;4976366;28;20037;-74
2023/09/02 01:10:04;;;;;;;24.58;19.10;;;16.00;99.90;;;;;;5010149;28;20026;-74
2023/09/02 01:12:32;;;;;;;24.85;18.77;;;16.00;99.90;;;;;;5010323;28;20034;-74
2023/09/02 01:14:59;;;;;;;28.13;21.48;;;16.00;99.90;;;;;;4994734;28;20037;-74
2023/09/02 01:17:25;;;;;;;30.70;22.65;;;15.90;99.90;;;;;;4992314;28;20535;-74
2023/09/02 01:19:55;;;;;;;29.42;22.20;;;15.90;99.90;;;;;;5011627;28;20046;-74
2023/09/02 01:22:37;;;;;;;27.45;19.60;;;15.90;99.90;;;;;;4992666;28;20050;-74
2023/09/02 01:25:06;;;;;;;30.42;21.95;;;15.90;99.90;;;;;;5030609;28;20029;-74
2023/09/02 01:28:07;;;;;;;28.40;19.70;;;16.00;99.90;;;;;;5026882;28;20057;-74
2023/09/02 01:30:36;;;;;;;29.10;20.42;;;16.00;99.90;;;;;;4990201;28;20058;-74
2023/09/02 01:33:06;;;;;;;31.58;20.88;;;16.10;99.90;;;;;;5014336;28;20029;-74
2023/09/02 01:35:34;;;;;;;32.30;20.85;;;16.20;99.90;;;;;;5013188;28;20849;-74
2023/09/02 01:38:03;;;;;;;34.17;20.83;;;16.20;99.90;;;;;;4997261;28;20034;-74
2023/09/02 01:40:32;;;;;;;35.70;21.90;;;16.30;99.90;;;;;;5011038;28;20048;-74
2023/09/02 01:43:00;;;;;;;31.17;20.48;;;16.30;99.90;;;;;;4996882;28;20040;-74
2023/09/02 01:45:32;;;;;;;35.38;21.80;;;16.40;99.90;;;;;;4996933;28;20049;-74
2023/09/02 01:47:59;;;;;;;38.80;23.75;;;16.40;99.90;;;;;;4997414;28;20041;-74
2023/09/02 01:50:29;;;;;;;39.30;23.75;;;16.40;99.90;;;;;;4996867;28;20030;-74
2023/09/02 01:52:57;;;;;;;35.75;22.00;;;16.50;99.90;;;;;;4981744;28;20998;-74
2023/09/02 01:55:25;;;;;;;36.95;22.52;;;16.50;99.90;;;;;;4981353;28;20528;-74
2023/09/02 01:57:55;;;;;;;33.33;21.63;;;16.60;99.90;;;;;;5013328;28;20516;-74
2023/09/02 02:00:22;;;;;;;36.88;22.23;;;16.60;99.90;;;;;;5010642;28;20699;-74
2023/09/02 02:02:55;;;;;;;35.78;21.35;;;16.60;99.90;;;;;;4997338;28;20034;-73
2023/09/02 02:05:51;;;;;;;36.80;22.40;;;16.60;99.90;;;;;;5009691;28;20034;-74
2023/09/02 02:08:55;;;;;;;32.67;21.35;;;16.60;99.90;;;;;;4992168;28;20512;-74
2023/09/02 02:11:23;;;;;;;34.58;18.92;;;16.60;99.90;;;;;;4975733;28;20057;-74
2023/09/02 02:13:51;;;;;;;36.47;21.52;;;16.60;99.90;;;;;;4994995;28;20034;-74
2023/09/02 02:16:22;;;;;;;36.30;21.45;;;16.70;99.90;;;;;;5012544;28;20045;-74
2023/09/02 02:18:48;;;;;;;38.17;21.60;;;16.70;99.90;;;;;;4980434;28;20465;-74
2023/09/02 02:21:15;;;;;;;38.22;22.70;;;16.70;99.90;;;;;;4996516;28;21637;-74
2023/09/02 02:23:41;;;;;;;36.83;21.52;;;16.70;99.90;;;;;;5012662;28;20040;-74
2023/09/02 02:26:07;;;;;;;36.03;21.17;;;16.70;99.90;;;;;;4997231;28;20038;-74
2023/09/02 02:28:36;;;;;;;38.58;22.33;;;16.70;99.90;;;;;;5013262;28;20038;-75
2023/09/02 02:31:02;;;;;;;39.40;22.33;;;16.80;99.90;;;;;;4998689;28;20400;-74
2023/09/02 02:33:29;;;;;;;36.58;21.20;;;16.70;99.90;;;;;;4980022;28;20038;-74
2023/09/02 02:35:55;;;;;;;37.80;21.58;;;16.80;99.90;;;;;;4997938;28;20030;-74
2023/09/02 02:38:22;;;;;;;32.50;19.42;;;16.80;99.90;;;;;;4995856;28;20469;-75
2023/09/02 02:40:49;;;;;;;37.40;20.40;;;16.80;99.90;;;;;;5013704;28;20504;-74
2023/09/02 02:43:16;;;;;;;38.35;21.90;;;16.80;99.90;;;;;;4984138;28;20030;-75
2023/09/02 02:45:43;;;;;;;38.38;21.85;;;16.80;99.90;;;;;;4996470;28;20230;-74
2023/09/02 02:48:15;;;;;;;37.25;20.52;;;16.90;99.90;;;;;;4997391;28;20649;-74
2023/09/02 02:50:41;;;;;;;39.70;22.02;;;16.80;99.90;;;;;;5013327;28;20481;-74
2023/09/02 02:53:08;;;;;;;40.88;21.98;;;16.90;99.90;;;;;;4997333;28;20022;-74
2023/09/02 02:55:34;;;;;;;42.88;23.17;;;16.90;99.90;;;;;;4997331;28;20037;-75
2023/09/02 02:58:03;;;;;;;43.78;21.70;;;16.90;99.90;;;;;;5029205;28;20068;-74
2023/09/02 03:00:30;;;;;;;39.28;21.52;;;16.90;99.90;;;;;;5025522;28;20037;-75
2023/09/02 03:02:57;;;;;;;41.63;22.23;;;16.90;99.90;;;;;;5027365;28;20381;-75
2023/09/02 03:05:23;;;;;;;36.13;19.73;;;16.90;99.90;;;;;;4996175;28;20818;-75
2023/09/02 03:07:50;;;;;;;47.70;23.85;;;16.90;99.90;;;;;;5028484;28;20362;-75
2023/09/02 03:10:18;;;;;;;42.65;22.67;;;16.90;99.90;;;;;;5011338;28;20036;-74
2023/09/02 03:12:45;;;;;;;47.58;23.52;;;16.90;99.90;;;;;;4996743;28;23030;-74
2023/09/02 03:15:12;;;;;;;44.65;21.98;;;16.90;99.90;;;;;;5012290;28;20397;-75
2023/09/02 03:17:38;;;;;;;46.63;23.88;;;16.90;99.90;;;;;;4996691;28;20026;-75
2023/09/02 03:20:07;;;;;;;41.22;22.25;;;16.90;99.90;;;;;;4995210;28;20599;-74
2023/09/02 03:22:34;;;;;;;42.00;21.02;;;16.90;99.90;;;;;;5012672;28;20030;-75
2023/09/02 03:25:01;;;;;;;47.65;22.73;;;16.90;99.90;;;;;;5009886;28;20119;-75
2023/09/02 03:27:28;;;;;;;46.28;23.02;;;16.90;99.90;;;;;;5011509;28;20057;-74
2023/09/02 03:29:56;;;;;;;46.65;23.20;;;16.90;99.90;;;;;;4996492;28;20033;-75
2023/09/02 03:32:26;;;;;;;50.80;24.42;;;16.90;99.90;;;;;;5024385;28;20500;-74
2023/09/02 03:34:53;;;;;;;39.45;20.58;;;16.90;99.90;;;;;;4997027;28;20049;-75
2023/09/02 03:37:19;;;;;;;59.85;24.25;;;17.00;99.90;;;;;;5010770;28;20021;-75
2023/09/02 03:39:47;;;;;;;46.72;22.98;;;16.90;99.90;;;;;;5028599;28;20026;-75
2023/09/02 03:42:13;;;;;;;44.10;22.30;;;17.00;99.90;;;;;;5012486;28;20034;-75
2023/09/02 03:44:40;;;;;;;48.97;22.85;;;17.00;99.90;;;;;;4980305;28;20465;-75
2023/09/02 03:47:06;;;;;;;47.20;22.77;;;17.00;99.90;;;;;;4994175;28;20064;-74
2023/09/02 03:49:33;;;;;;;44.08;22.48;;;17.00;99.90;;;;;;4979407;28;20049;-75
2023/09/02 03:51:59;;;;;;;46.85;23.20;;;17.00;99.90;;;;;;4995709;28;20034;-75
2023/09/02 03:54:26;;;;;;;45.55;21.23;;;17.00;99.90;;;;;;5028983;28;20497;-75
2023/09/02 03:56:52;;;;;;;49.03;23.08;;;17.00;99.90;;;;;;5029898;28;20056;-74
2023/09/02 03:59:19;;;;;;;46.22;23.00;;;17.00;99.90;;;;;;5011163;28;20046;-74
2023/09/02 04:01:46;;;;;;;47.65;23.48;;;17.00;99.90;;;;;;5011623;28;20030;-75
2023/09/02 04:04:13;;;;;;;44.95;22.95;;;17.00;99.90;;;;;;4996551;28;20078;-75
2023/09/02 04:06:39;;;;;;;47.83;22.38;;;17.00;99.90;;;;;;4996072;28;20137;-75
2023/09/02 04:09:07;;;;;;;50.95;21.05;;;17.00;99.90;;;;;;4993485;28;20130;-75
2023/09/02 04:11:34;;;;;;;54.25;23.05;;;17.00;99.90;;;;;;5027866;28;20026;-75
2023/09/02 04:14:01;;;;;;;82.72;28.33;;;17.00;99.90;;;;;;4996373;28;20021;-75
2023/09/02 04:16:27;;;;;;;76.15;25.05;;;17.00;99.90;;;;;;4995733;28;20040;-75
2023/09/02 04:18:54;;;;;;;49.38;22.60;;;17.00;99.90;;;;;;5009463;28;20018;-75
2023/09/02 04:21:20;;;;;;;50.92;25.23;;;17.00;99.90;;;;;;4980098;28;20484;-75
2023/09/02 04:23:47;;;;;;;46.88;22.27;;;17.00;99.90;;;;;;5028377;28;20030;-75
2023/09/02 04:26:19;;;;;;;48.83;22.90;;;17.00;99.90;;;;;;4995966;28;20042;-75
2023/09/02 04:28:45;;;;;;;42.00;21.35;;;17.00;99.90;;;;;;5008074;28;20053;-75
2023/09/02 04:31:16;;;;;;;47.10;22.60;;;17.00;99.90;;;;;;5012217;28;20053;-75
2023/09/02 04:33:43;;;;;;;60.75;23.65;;;17.00;99.90;;;;;;5011786;28;20022;-75
2023/09/02 04:36:09;;;;;;;47.45;24.83;;;17.00;99.90;;;;;;4995545;28;20033;-75
2023/09/02 04:38:41;;;;;;;48.78;22.10;;;17.00;99.90;;;;;;4992021;28;20350;-75
2023/09/02 04:41:09;;;;;;;51.17;22.23;;;17.00;99.90;;;;;;5010978;28;20046;-75
2023/09/02 04:43:37;;;;;;;51.15;24.17;;;17.00;99.90;;;;;;4978715;28;20034;-75
2023/09/02 04:46:04;;;;;;;51.40;23.42;;;17.00;99.90;;;;;;4995297;28;20022;-75
2023/09/02 04:48:33;;;;;;;43.85;21.58;;;17.00;99.90;;;;;;5009401;28;20487;-75
2023/09/02 04:51:05;;;;;;;54.95;22.10;;;17.00;99.90;;;;;;5027883;28;20053;-74
2023/09/02 04:53:33;;;;;;;51.63;23.83;;;17.10;99.90;;;;;;4966851;28;20488;-75
2023/09/02 04:56:00;;;;;;;52.30;22.73;;;17.00;99.90;;;;;;5012244;28;20046;-75
2023/09/02 04:58:27;;;;;;;57.67;25.88;;;17.00;99.90;;;;;;4997043;28;20061;-74
2023/09/02 05:00:54;;;;;;;51.70;23.85;;;17.00;99.90;;;;;;4998599;28;20519;-75
2023/09/02 05:03:21;;;;;;;49.55;21.75;;;17.10;99.90;;;;;;4982446;28;20026;-75
2023/09/02 05:05:49;;;;;;;47.30;23.95;;;17.10;99.90;;;;;;5029061;28;20465;-75
2023/09/02 05:08:16;;;;;;;47.10;22.30;;;17.00;99.90;;;;;;5030897;28;20044;-75
2023/09/02 05:10:44;;;;;;;47.92;23.05;;;17.10;99.90;;;;;;5013987;28;20057;-75
2023/09/02 05:13:10;;;;;;;53.72;24.00;;;17.10;99.90;;;;;;5000912;28;20476;-75
2023/09/02 05:15:37;;;;;;;42.85;21.27;;;17.10;99.90;;;;;;5032637;28;20034;-75
2023/09/02 05:18:04;;;;;;;45.55;22.67;;;17.20;99.90;;;;;;4998017;28;20033;-75
2023/09/02 05:20:30;;;;;;;92.18;30.15;;;17.20;99.90;;;;;;4998275;28;20042;-75
2023/09/02 05:22:57;;;;;;;47.03;23.08;;;17.20;99.90;;;;;;4998764;28;20034;-75
2023/09/02 05:25:27;;;;;;;55.85;24.75;;;17.20;99.90;;;;;;5011069;28;20042;-75
2023/09/02 05:27:54;;;;;;;45.40;23.42;;;17.20;99.90;;;;;;4980970;28;20397;-75
2023/09/02 05:30:21;;;;;;;51.35;24.73;;;17.20;99.90;;;;;;4997036;28;20018;-75
2023/09/02 05:32:47;;;;;;;49.42;23.65;;;17.30;99.90;;;;;;4981399;28;20034;-77
2023/09/02 05:35:14;;;;;;;47.35;23.73;;;17.30;99.90;;;;;;4999101;28;20051;-76
2023/09/02 05:37:40;;;;;;;51.75;25.42;;;17.30;99.90;;;;;;5014405;28;20045;-77
2023/09/02 05:40:08;;;;;;;48.70;24.27;;;17.30;99.90;;;;;;4997662;28;20034;-77
2023/09/02 05:42:34;;;;;;;49.17;25.98;;;17.30;99.90;;;;;;4998532;28;20026;-76
2023/09/02 05:45:01;;;;;;;46.25;24.67;;;17.30;99.90;;;;;;4998458;28;20030;-76
2023/09/02 05:47:28;;;;;;;49.55;24.60;;;17.40;99.90;;;;;;5013551;28;20053;-76
2023/09/02 05:49:54;;;;;;;43.50;22.30;;;17.40;99.90;;;;;;4998219;28;20076;-77
2023/09/02 05:52:21;;;;;;;42.13;23.13;;;17.40;99.90;;;;;;4997609;28;20118;-76
2023/09/02 05:54:48;;;;;;;44.47;23.05;;;17.40;99.90;;;;;;4998531;28;20357;-76
2023/09/02 05:57:14;;;;;;;48.72;24.25;;;17.40;99.90;;;;;;4997803;28;20518;-76
2023/09/02 05:59:44;;;;;;;44.22;23.15;;;17.40;99.90;;;;;;5013203;28;20038;-76
2023/09/02 06:02:11;;;;;;;38.28;22.33;;;17.50;99.90;;;;;;5030540;28;20037;-76
2023/09/02 06:04:38;;;;;;;54.75;22.88;;;17.50;99.90;;;;;;5014512;28;20026;-78
2023/09/02 06:07:04;;;;;;;35.40;21.52;;;17.50;99.90;;;;;;4982222;28;20472;-77
2023/09/02 06:09:31;;;;;;;33.15;19.73;;;17.50;99.90;;;;;;4994989;28;20030;-77
2023/09/02 06:11:57;;;;;;;37.90;22.75;;;17.50;99.90;;;;;;4997441;28;20594;-74
2023/09/02 06:14:23;;;;;;;31.67;20.63;;;17.50;99.90;;;;;;4997301;28;20037;-74
2023/09/02 06:16:50;;;;;;;39.47;24.20;;;17.50;99.90;;;;;;4981827;28;20046;-75
2023/09/02 06:19:17;;;;;;;36.97;22.60;;;17.50;99.90;;;;;;5027108;28;20030;-74
2023/09/02 06:21:43;;;;;;;32.45;19.95;;;17.60;99.90;;;;;;4998093;28;20050;-74
2023/09/02 06:24:09;;;;;;;34.45;20.80;;;17.60;99.90;;;;;;4996961;28;20057;-74
2023/09/02 06:26:36;;;;;;;39.10;24.05;;;17.60;99.90;;;;;;4981481;28;20034;-74
2023/09/02 06:29:02;;;;;;;37.58;22.13;;;17.60;99.90;;;;;;4979169;28;20417;-74
2023/09/02 06:31:28;;;;;;;35.92;21.05;;;17.60;99.90;;;;;;4980933;28;20041;-74
2023/09/02 06:33:55;;;;;;;32.00;21.33;;;17.60;99.90;;;;;;4997059;28;20045;-74
2023/09/02 06:36:21;;;;;;;34.78;23.75;;;17.60;99.90;;;;;;5030377;28;20042;-74
2023/09/02 06:38:48;;;;;;;29.52;20.00;;;17.70;99.90;;;;;;4981519;28;20038;-75
2023/09/02 06:41:16;;;;;;;31.20;21.35;;;17.70;99.90;;;;;;4999783;28;20030;-75
2023/09/02 06:43:43;;;;;;;25.27;17.20;;;17.70;99.90;;;;;;4996212;28;20397;-76
2023/09/02 06:46:22;;;;;;;33.08;20.27;;;17.70;99.90;;;;;;4998845;28;20037;-75
2023/09/02 06:48:49;;;;;;;31.75;21.40;;;17.70;99.90;;;;;;4996074;28;20030;-75
2023/09/02 06:51:16;;;;;;;28.27;19.67;;;17.80;99.90;;;;;;5012815;28;20062;-75
2023/09/02 06:53:43;;;;;;;26.00;18.88;;;17.70;99.90;;;;;;4996093;28;20053;-75
2023/09/02 06:56:12;;;;;;;26.20;19.02;;;17.70;99.90;;;;;;4999109;28;20378;-74
2023/09/02 06:58:40;;;;;;;26.58;19.13;;;17.80;99.90;;;;;;4994933;28;20044;-75
2023/09/02 07:01:14;;;;;;;24.75;17.70;;;17.80;99.90;;;;;;5012291;28;20412;-75
2023/09/02 07:03:40;;;;;;;28.25;20.63;;;17.80;99.90;;;;;;5013093;28;20037;-75
2023/09/02 07:06:08;;;;;;;23.08;18.10;;;17.90;99.90;;;;;;5012974;28;20481;-75
2023/09/02 07:08:35;;;;;;;23.08;18.65;;;17.90;99.90;;;;;;4993862;28;20044;-75
2023/09/02 07:11:01;;;;;;;21.02;16.20;;;17.90;99.90;;;;;;4996020;28;20042;-74
2023/09/02 07:13:27;;;;;;;18.38;14.35;;;17.90;99.90;;;;;;4996847;28;20477;-75
2023/09/02 07:16:01;;;;;;;21.67;16.00;;;17.90;99.90;;;;;;5009452;28;20393;-75
2023/09/02 07:18:28;;;;;;;21.95;16.45;;;18.00;99.90;;;;;;4997646;28;20489;-75
2023/09/02 07:20:59;;;;;;;21.95;15.57;;;18.10;99.90;;;;;;4996613;28;20497;-75
2023/09/02 07:23:26;;;;;;;24.65;16.20;;;18.10;99.90;;;;;;5012764;28;20038;-75
2023/09/02 07:25:53;;;;;;;25.67;17.67;;;18.20;99.90;;;;;;4996218;28;20390;-76
2023/09/02 07:28:19;;;;;;;26.20;17.35;;;18.30;99.90;;;;;;4994721;28;20045;-75
2023/09/02 07:30:45;;;;;;;27.63;17.60;;;18.30;99.90;;;;;;4995579;28;20038;-75
2023/09/02 07:33:12;;;;;;;27.42;18.88;;;18.40;99.90;;;;;;5029757;28;20030;-75
2023/09/02 07:35:39;;;;;;;28.92;19.08;;;18.40;99.90;;;;;;4995401;28;20029;-75
2023/09/02 07:38:06;;;;;;;31.80;21.95;;;18.40;99.90;;;;;;4979145;28;20037;-74
2023/09/02 07:40:33;;;;;;;28.70;19.02;;;18.50;99.90;;;;;;5028694;28;20033;-75
2023/09/02 07:43:00;;;;;;;27.63;18.95;;;18.50;99.90;;;;;;5012562;28;20439;-75
2023/09/02 07:45:27;;;;;;;29.45;18.98;;;18.60;99.90;;;;;;4995459;28;20089;-75
2023/09/02 07:47:54;;;;;;;28.25;18.55;;;18.70;99.90;;;;;;5028623;28;20056;-75
2023/09/02 07:50:20;;;;;;;36.53;24.45;;;18.80;99.90;;;;;;5013273;28;20052;-75
2023/09/02 07:52:48;;;;;;;29.05;19.45;;;18.90;99.90;;;;;;4996718;28;20029;-75
2023/09/02 07:55:14;;;;;;;27.88;19.08;;;18.90;99.90;;;;;;4995904;28;20041;-75
2023/09/02 07:57:41;;;;;;;29.05;19.88;;;19.00;99.90;;;;;;5025794;28;20038;-76
2023/09/02 08:00:08;;;;;;;27.92;18.88;;;19.20;99.90;;;;;;5011284;28;20060;-76
2023/09/02 08:02:40;;;;;;;23.80;17.50;;;19.10;99.90;;;;;;4995668;28;20531;-76
2023/09/02 08:05:07;;;;;;;27.88;18.58;;;19.20;99.90;;;;;;5012011;28;20045;-75
2023/09/02 08:07:34;;;;;;;30.27;20.98;;;19.20;99.90;;;;;;4978362;28;20050;-75
2023/09/02 08:10:00;;;;;;;24.60;18.92;;;19.20;99.90;;;;;;5011621;28;20431;-75
2023/09/02 08:12:27;;;;;;;21.27;15.77;;;19.20;99.90;;;;;;5029529;28;20033;-76
2023/09/02 08:14:53;;;;;;;22.50;17.30;;;19.20;99.90;;;;;;4994833;28;20037;-75
2023/09/02 08:17:20;;;;;;;20.00;15.57;;;19.20;99.90;;;;;;4994639;28;20727;-76
2023/09/02 08:19:46;;;;;;;21.20;15.98;;;19.30;99.90;;;;;;4995669;28;20133;-75
2023/09/02 08:22:13;;;;;;;21.65;16.27;;;19.30;99.90;;;;;;5010465;28;20061;-76
2023/09/02 08:24:40;;;;;;;22.40;16.55;;;19.30;99.90;;;;;;4995377;28;20364;-75
2023/09/02 08:27:06;;;;;;;21.30;16.23;;;19.40;99.90;;;;;;5011406;28;20033;-78
2023/09/02 08:29:33;;;;;;;19.17;14.93;;;19.30;99.90;;;;;;4978140;28;20037;-77
2023/09/02 08:32:00;;;;;;;22.65;16.58;;;19.30;99.90;;;;;;4977621;28;20030;-81
2023/09/02 08:34:27;;;;;;;22.83;16.75;;;19.20;99.90;;;;;;5010518;28;20357;-81
2023/09/02 08:36:53;;;;;;;23.90;18.08;;;19.20;99.90;;;;;;4993221;28;20417;-81
2023/09/02 08:39:19;;;;;;;25.70;20.08;;;19.20;99.90;;;;;;5010317;28;20485;-79
2023/09/02 08:41:48;;;;;;;25.27;18.15;;;19.20;99.90;;;;;;4978272;28;20034;-78
2023/09/02 08:44:17;;;;;;;25.08;17.85;;;19.30;99.90;;;;;;4994770;28;20034;-80
2023/09/02 08:46:46;;;;;;;21.65;17.45;;;19.40;99.90;;;;;;4979264;28;20030;-80
2023/09/02 08:49:16;;;;;;;24.85;18.23;;;19.40;99.90;;;;;;4994381;28;20030;-77
2023/09/02 08:51:43;;;;;;;24.55;18.00;;;19.50;99.90;;;;;;4994433;28;20042;-77
2023/09/02 08:54:11;;;;;;;22.17;16.25;;;19.60;99.90;;;;;;4994279;28;20328;-77
2023/09/02 08:56:42;;;;;;;25.70;20.55;;;19.80;99.90;;;;;;4994815;28;20030;-77
2023/09/02 08:59:13;;;;;;;23.17;17.70;;;19.90;99.90;;;;;;5023963;28;20037;-77
2023/09/02 09:01:44;;;;;;;20.98;16.95;;;20.00;99.90;;;;;;5010720;28;20034;-79
2023/09/02 09:04:15;;;;;;;20.70;17.43;;;20.20;99.90;;;;;;4978613;28;20037;-78
2023/09/02 09:06:42;;;;;;;20.42;16.30;;;20.50;99.90;;;;;;4994278;28;20287;-77
2023/09/02 09:09:09;;;;;;;22.45;18.13;;;20.60;99.90;;;;;;4993809;28;20045;-78
2023/09/02 09:11:41;;;;;;;20.52;17.35;;;20.80;99.90;;;;;;4977710;28;20041;-77
2023/09/02 09:14:23;;;;;;;19.67;16.05;;;21.00;99.90;;;;;;4978073;28;20393;-77
2023/09/02 09:16:56;;;;;;;17.70;15.25;;;21.00;99.90;;;;;;4994554;28;20715;-77
2023/09/02 09:19:24;;;;;;;21.73;18.52;;;21.00;99.90;;;;;;4993020;28;20473;-78
2023/09/02 09:21:50;;;;;;;18.10;15.30;;;21.00;99.90;;;;;;4994307;28;20532;-77
2023/09/02 09:24:17;;;;;;;19.33;15.65;;;21.10;99.90;;;;;;4995147;28;20491;-77
2023/09/02 09:26:45;;;;;;;18.30;16.05;;;21.00;99.90;;;;;;5010062;28;20211;-78
2023/09/02 09:29:16;;;;;;;19.00;16.60;;;21.10;99.90;;;;;;5008588;28;20049;-78
2023/09/02 09:31:43;;;;;;;17.73;15.93;;;21.10;99.90;;;;;;4990831;28;20034;-77
2023/09/02 09:34:10;;;;;;;17.58;15.80;;;21.20;99.90;;;;;;4993566;28;20491;-78
2023/09/02 09:36:36;;;;;;;16.40;13.63;;;21.30;99.90;;;;;;4993435;28;20042;-78
2023/09/02 09:39:05;;;;;;;15.15;13.57;;;21.40;99.90;;;;;;4992413;28;20037;-78
2023/09/02 09:41:33;;;;;;;16.85;14.20;;;21.40;99.90;;;;;;5006837;28;20042;-77
2023/09/02 09:44:06;;;;;;;18.35;15.60;;;21.40;99.90;;;;;;5023433;28;20045;-77
2023/09/02 09:46:54;;;;;;;16.13;13.95;;;21.40;99.90;;;;;;5026930;28;20049;-81
2023/09/02 09:49:22;;;;;;;13.70;11.90;;;21.40;99.90;;;;;;4993448;28;20061;-82
2023/09/02 09:52:01;;;;;;;13.18;11.77;;;21.40;99.90;;;;;;5010115;28;20029;-81
2023/09/02 09:54:38;;;;;;;14.48;12.50;;;21.50;99.90;;;;;;5008749;28;20037;-79
2023/09/02 09:57:16;;;;;;;18.90;15.23;;;21.50;99.90;;;;;;5011668;28;20393;-78
2023/09/02 09:59:52;;;;;;;14.75;13.25;;;21.60;99.90;;;;;;4995737;28;20495;-80
2023/09/02 10:02:21;;;;;;;14.10;12.65;;;21.60;99.90;;;;;;4996293;28;20049;-81
2023/09/02 10:04:59;;;;;;;15.13;13.55;;;21.60;99.90;;;;;;5011444;28;20508;-79
2023/09/02 10:07:31;;;;;;;14.73;13.23;;;21.60;99.90;;;;;;4996597;28;20030;-80
2023/09/02 10:09:58;;;;;;;;;;;21.80;99.90;;;;;;4995721;28;20041;-80
2023/09/02 10:12:25;;;;;;;13.38;11.98;;;21.80;99.90;;;;;;4997971;28;19917;-79
2023/09/02 10:14:51;;;;;;;13.50;12.10;;;21.90;99.90;;;;;;5028628;28;20041;-79
2023/09/02 10:17:18;;;;;;;15.77;14.10;;;22.00;99.90;;;;;;4995253;28;20042;-80
2023/09/02 10:19:46;;;;;;;15.10;12.38;;;22.10;99.90;;;;;;4995883;28;20038;-80
2023/09/02 10:22:20;;;;;;;14.43;12.93;;;22.30;99.90;;;;;;5012728;28;20049;-79
2023/09/02 10:24:49;;;;;;;13.88;12.57;;;22.30;99.90;;;;;;5012700;28;20357;-80
2023/09/02 10:27:23;;;;;;;16.88;15.18;;;22.30;99.90;;;;;;5027981;28;20045;-79
2023/09/02 10:29:56;;;;;;;14.88;13.38;;;22.30;99.90;;;;;;4996757;28;20033;-80
2023/09/02 10:32:45;;;;;;;14.02;12.63;;;22.30;99.90;;;;;;5027978;28;20465;-81
2023/09/02 10:35:21;;;;;;;15.65;14.15;;;22.40;99.90;;;;;;4995379;28;20045;-80
2023/09/02 10:37:54;;;;;;;15.13;13.57;;;22.60;99.90;;;;;;5012423;28;20493;-80
2023/09/02 10:40:34;;;;;;;14.68;13.13;;;22.60;99.90;;;;;;4994754;28;20044;-80
2023/09/02 10:43:01;;;;;;;12.52;11.32;;;22.60;99.90;;;;;;4997632;28;20563;-81
2023/09/02 10:45:29;;;;;;;13.48;12.18;;;22.50;99.90;;;;;;5010398;28;20513;-80
2023/09/02 10:47:55;;;;;;;17.95;16.08;;;22.60;99.90;;;;;;5030519;28;20049;-80
2023/09/02 10:50:23;;;;;;;14.02;12.63;;;22.60;99.90;;;;;;5010755;28;20034;-80
2023/09/02 10:52:55;;;;;;;13.15;11.07;;;22.60;99.90;;;;;;5012175;28;20034;-79
2023/09/02 10:55:22;;;;;;;12.13;10.93;;;23.00;99.90;;;;;;4995037;28;20045;-81
2023/09/02 10:57:54;;;;;;;13.10;10.85;;;23.20;99.90;;;;;;4979272;28;20030;-82
2023/09/02 11:00:24;;;;;;;11.18;10.10;;;23.40;99.90;;;;;;4994401;28;20022;-82
2023/09/02 11:02:52;;;;;;;11.27;10.18;;;23.40;99.90;;;;;;4995140;28;20471;-80
2023/09/02 11:05:20;;;;;;;9.93;9.02;;;23.40;99.90;;;;;;5027255;28;20055;-80
2023/09/02 11:07:48;;;;;;;11.10;10.02;;;23.40;99.90;;;;;;4996142;28;20049;-81
2023/09/02 11:10:18;;;;;;;10.50;9.60;;;23.60;99.90;;;;;;4995896;28;20045;-79
2023/09/02 11:12:57;;;;;;;10.90;9.90;;;23.70;99.90;;;;;;5011891;28;20034;-82
2023/09/02 11:15:24;;;;;;;8.30;7.50;;;24.00;99.90;;;;;;4978044;28;20041;-79
2023/09/02 11:17:50;;;;;;;10.82;9.68;;;24.20;99.90;;;;;;4993674;28;20425;-81
2023/09/02 11:20:26;;;;;;;8.80;7.90;;;24.20;99.90;;;;;;5009646;28;20484;-81
2023/09/02 11:22:53;;;;;;;10.25;9.25;;;24.10;99.90;;;;;;4993785;28;20045;-81
2023/09/02 11:25:41;;;;;;;10.52;9.55;;;23.80;99.90;;;;;;4994880;28;20369;-85
2023/09/02 11:28:17;;;;;;;10.43;9.43;;;23.50;99.90;;;;;;5010021;28;20417;-78
2023/09/02 11:31:09;;;;;;;10.52;9.63;;;23.30;99.90;;;;;;4995206;28;21762;-80
2023/09/02 11:33:37;;;;;;;8.10;7.40;;;23.20;99.90;;;;;;5027010;28;20030;-79
2023/09/02 11:36:12;;;;;;;8.85;7.88;;;23.20;99.90;;;;;;5009902;28;20053;-79
2023/09/02 11:38:39;;;;;;;7.70;7.07;;;23.30;99.90;;;;;;4992024;28;20029;-79
2023/09/02 11:41:05;;;;;;;8.35;7.40;;;23.30;99.90;;;;;;4995895;28;20037;-82
2023/09/02 11:43:32;;;;;;;8.55;7.85;;;23.30;99.90;;;;;;5009703;28;20029;-80
2023/09/02 11:46:03;;;;;;;7.22;6.63;;;23.30;99.90;;;;;;5010461;28;20753;-78
2023/09/02 11:48:30;;;;;;;6.90;6.15;;;23.30;99.90;;;;;;4993280;28;20057;-81
2023/09/02 11:50:58;;;;;;;5.82;5.38;;;23.40;99.90;;;;;;5009607;28;20040;-82
2023/09/02 11:53:29;;;;;;;5.65;5.15;;;23.90;99.90;;;;;;4994197;28;20846;-80
2023/09/02 11:55:56;;;;;;;7.07;6.47;;;24.70;99.90;;;;;;5010335;28;21369;-83
2023/09/02 11:58:23;;;;;;;7.20;6.50;;;25.20;99.90;;;;;;4995139;28;20038;-81
2023/09/02 12:00:50;;;;;;;6.55;5.95;;;25.40;99.90;;;;;;4994969;28;20044;-78
2023/09/02 12:03:24;;;;;;;7.63;6.93;;;25.20;99.90;;;;;;5026786;28;20041;-78
2023/09/02 12:05:53;;;;;;;7.63;6.85;;;24.80;99.90;;;;;;4995923;28;20042;-78
2023/09/02 12:08:19;;;;;;;6.82;6.13;;;24.40;99.90;;;;;;4992681;28;21143;-78
2023/09/02 12:10:46;;;;;;;6.75;6.15;;;24.10;99.90;;;;;;4993952;28;20164;-78
2023/09/02 12:13:13;;;;;;;6.03;5.43;;;23.80;99.90;;;;;;4978612;28;20041;-79
2023/09/02 12:15:40;;;;;;;4.50;4.10;;;23.60;99.90;;;;;;4977485;28;20030;-78
2023/09/02 12:18:07;;;;;;;5.50;5.00;;;23.50;99.90;;;;;;5009380;28;20037;-78
2023/09/02 12:20:34;;;;;;;5.65;4.72;;;23.40;99.90;;;;;;4975409;28;20076;-78
2023/09/02 12:23:01;;;;;;;4.90;4.30;;;23.50;99.90;;;;;;4993124;28;21279;-79
2023/09/02 12:25:29;;;;;;;5.25;4.80;;;23.50;99.90;;;;;;4992869;28;20045;-78
2023/09/02 12:28:09;;;;;;;5.70;5.20;;;23.70;99.90;;;;;;4994421;28;20030;-80
2023/09/02 12:30:37;;;;;;;6.07;5.57;;;23.80;99.90;;;;;;5008921;28;20029;-78
2023/09/02 12:33:05;;;;;;;5.65;5.15;;;24.00;99.90;;;;;;5006772;28;20469;-79
2023/09/02 12:35:32;;;;;;;6.78;6.18;;;24.20;99.90;;;;;;5009726;28;20405;-78